sensor_id;sensor_type;location;lat;lon;timestamp;P1;durP1;ratioP1;P2;durP2;ratioP2
14847;SDS011;7516;43.570;1.448;2023-10-13T00:00:26;6.63;;;6.03;;
14847;SDS011;7516;43.570;1.448;2023-10-13T00:02:55;6.57;;;5.97;;
14847;SDS011;7516;43.570;1.448;2023-10-13T00:05:26;7.28;;;5.80;;
14847;SDS011;7516;43.570;1.448;2023-10-13T00:07:55;6.72;;;6.03;;
14847;SDS011;7516;43.570;1.448;2023-10-13T00:10:26;6.75;;;6.07;;
14847;SDS011;7516;43.570;1.448;2023-10-13T00:12:54;6.75;;;6.15;;
14847;SDS011;7516;43.570;1.448;2023-10-13T00:15:32;6.60;;;5.88;;
14847;SDS011;7516;43.570;1.448;2023-10-13T00:18:04;6.40;;;5.55;;
14847;SDS011;7516;43.570;1.448;2023-10-13T00:20:38;6.90;;;6.20;;
14847;SDS011;7516;43.570;1.448;2023-10-13T00:23:12;7.78;;;6.00;;
14847;SDS011;7516;43.570;1.448;2023-10-13T00:25:39;7.30;;;6.50;;
14847;SDS011;7516;43.570;1.448;2023-10-13T00:28:15;7.30;;;6.60;;
14847;SDS011;7516;43.570;1.448;2023-10-13T00:30:50;8.23;;;6.40;;
14847;SDS011;7516;43.570;1.448;2023-10-13T00:33:18;8.57;;;7.05;;
14847;SDS011;7516;43.570;1.448;2023-10-13T00:35:49;8.82;;;7.22;;
14847;SDS011;7516;43.570;1.448;2023-10-13T00:38:17;7.78;;;7.00;;
14847;SDS011;7516;43.570;1.448;2023-10-13T00:40:45;9.05;;;7.22;;
14847;SDS011;7516;43.570;1.448;2023-10-13T00:43:18;8.18;;;7.32;;
14847;SDS011;7516;43.570;1.448;2023-10-13T00:46:01;8.98;;;8.00;;
14847;SDS011;7516;43.570;1.448;2023-10-13T00:48:38;10.07;;;8.50;;
14847;SDS011;7516;43.570;1.448;2023-10-13T00:51:09;10.52;;;8.70;;
14847;SDS011;7516;43.570;1.448;2023-10-13T00:53:48;9.38;;;8.18;;
14847;SDS011;7516;43.570;1.448;2023-10-13T00:56:15;10.23;;;8.98;;
14847;SDS011;7516;43.570;1.448;2023-10-13T00:58:47;9.90;;;8.75;;
14847;SDS011;7516;43.570;1.448;2023-10-13T01:01:18;10.18;;;8.77;;
14847;SDS011;7516;43.570;1.448;2023-10-13T01:03:47;13.27;;;8.95;;
14847;SDS011;7516;43.570;1.448;2023-10-13T01:06:16;10.27;;;8.90;;
14847;SDS011;7516;43.570;1.448;2023-10-13T01:08:45;11.27;;;9.10;;
14847;SDS011;7516;43.570;1.448;2023-10-13T01:11:16;10.25;;;8.27;;
14847;SDS011;7516;43.570;1.448;2023-10-13T01:13:45;11.68;;;9.20;;
14847;SDS011;7516;43.570;1.448;2023-10-13T01:16:17;11.55;;;8.88;;
14847;SDS011;7516;43.570;1.448;2023-10-13T01:18:48;11.93;;;8.80;;
14847;SDS011;7516;43.570;1.448;2023-10-13T01:21:15;11.30;;;8.98;;
14847;SDS011;7516;43.570;1.448;2023-10-13T01:23:47;10.23;;;8.57;;
14847;SDS011;7516;43.570;1.448;2023-10-13T01:26:15;12.20;;;9.23;;
14847;SDS011;7516;43.570;1.448;2023-10-13T01:28:48;9.50;;;8.50;;
14847;SDS011;7516;43.570;1.448;2023-10-13T01:31:16;9.60;;;8.40;;
14847;SDS011;7516;43.570;1.448;2023-10-13T01:34:02;9.38;;;8.48;;
14847;SDS011;7516;43.570;1.448;2023-10-13T01:36:29;9.38;;;8.43;;
14847;SDS011;7516;43.570;1.448;2023-10-13T01:39:02;10.43;;;9.25;;
14847;SDS011;7516;43.570;1.448;2023-10-13T01:41:28;9.55;;;8.48;;
14847;SDS011;7516;43.570;1.448;2023-10-13T01:43:56;12.25;;;9.38;;
14847;SDS011;7516;43.570;1.448;2023-10-13T01:46:22;9.77;;;8.80;;
14847;SDS011;7516;43.570;1.448;2023-10-13T01:48:50;9.15;;;8.07;;
14847;SDS011;7516;43.570;1.448;2023-10-13T01:51:19;9.80;;;8.52;;
14847;SDS011;7516;43.570;1.448;2023-10-13T01:53:53;9.63;;;8.15;;
14847;SDS011;7516;43.570;1.448;2023-10-13T01:56:23;11.70;;;8.75;;
14847;SDS011;7516;43.570;1.448;2023-10-13T01:58:55;9.85;;;8.05;;
14847;SDS011;7516;43.570;1.448;2023-10-13T02:01:21;11.15;;;8.25;;
14847;SDS011;7516;43.570;1.448;2023-10-13T02:03:58;9.20;;;6.93;;
14847;SDS011;7516;43.570;1.448;2023-10-13T02:06:28;9.27;;;8.00;;
14847;SDS011;7516;43.570;1.448;2023-10-13T02:09:01;10.50;;;8.23;;
14847;SDS011;7516;43.570;1.448;2023-10-13T02:11:37;10.77;;;7.97;;
14847;SDS011;7516;43.570;1.448;2023-10-13T02:14:05;10.35;;;8.50;;
14847;SDS011;7516;43.570;1.448;2023-10-13T02:16:32;9.60;;;8.38;;
14847;SDS011;7516;43.570;1.448;2023-10-13T02:19:02;10.45;;;8.45;;
14847;SDS011;7516;43.570;1.448;2023-10-13T02:21:29;9.93;;;8.07;;
14847;SDS011;7516;43.570;1.448;2023-10-13T02:24:04;8.60;;;7.78;;
14847;SDS011;7516;43.570;1.448;2023-10-13T02:26:39;10.85;;;8.73;;
14847;SDS011;7516;43.570;1.448;2023-10-13T02:29:07;9.25;;;8.27;;
14847;SDS011;7516;43.570;1.448;2023-10-13T02:31:34;9.90;;;8.48;;
14847;SDS011;7516;43.570;1.448;2023-10-13T02:34:02;12.70;;;8.80;;
14847;SDS011;7516;43.570;1.448;2023-10-13T02:36:33;9.68;;;8.32;;
14847;SDS011;7516;43.570;1.448;2023-10-13T02:39:12;11.38;;;8.70;;
14847;SDS011;7516;43.570;1.448;2023-10-13T02:41:40;11.90;;;8.57;;
14847;SDS011;7516;43.570;1.448;2023-10-13T02:44:13;10.13;;;8.85;;
14847;SDS011;7516;43.570;1.448;2023-10-13T02:46:52;13.57;;;8.40;;
14847;SDS011;7516;43.570;1.448;2023-10-13T02:49:20;12.60;;;9.15;;
14847;SDS011;7516;43.570;1.448;2023-10-13T02:51:47;10.07;;;9.05;;
14847;SDS011;7516;43.570;1.448;2023-10-13T02:54:18;12.85;;;8.95;;
14847;SDS011;7516;43.570;1.448;2023-10-13T02:56:46;9.00;;;8.10;;
14847;SDS011;7516;43.570;1.448;2023-10-13T02:59:21;10.25;;;8.73;;
14847;SDS011;7516;43.570;1.448;2023-10-13T03:01:59;11.85;;;8.95;;
14847;SDS011;7516;43.570;1.448;2023-10-13T03:04:31;10.13;;;9.02;;
14847;SDS011;7516;43.570;1.448;2023-10-13T03:07:01;12.60;;;9.05;;
14847;SDS011;7516;43.570;1.448;2023-10-13T03:09:28;9.68;;;8.63;;
14847;SDS011;7516;43.570;1.448;2023-10-13T03:11:57;9.63;;;8.63;;
14847;SDS011;7516;43.570;1.448;2023-10-13T03:14:23;9.75;;;8.35;;
14847;SDS011;7516;43.570;1.448;2023-10-13T03:16:56;9.90;;;8.32;;
14847;SDS011;7516;43.570;1.448;2023-10-13T03:19:28;9.57;;;7.88;;
14847;SDS011;7516;43.570;1.448;2023-10-13T03:21:58;9.07;;;7.63;;
14847;SDS011;7516;43.570;1.448;2023-10-13T03:24:31;9.20;;;8.10;;
14847;SDS011;7516;43.570;1.448;2023-10-13T03:27:01;11.25;;;8.05;;
14847;SDS011;7516;43.570;1.448;2023-10-13T03:29:34;9.65;;;7.45;;
14847;SDS011;7516;43.570;1.448;2023-10-13T03:32:02;8.95;;;7.45;;
14847;SDS011;7516;43.570;1.448;2023-10-13T03:34:36;11.32;;;8.00;;
14847;SDS011;7516;43.570;1.448;2023-10-13T03:37:14;9.55;;;7.72;;
14847;SDS011;7516;43.570;1.448;2023-10-13T03:39:45;9.73;;;7.82;;
14847;SDS011;7516;43.570;1.448;2023-10-13T03:42:15;9.15;;;7.55;;
14847;SDS011;7516;43.570;1.448;2023-10-13T03:44:44;9.13;;;7.60;;
14847;SDS011;7516;43.570;1.448;2023-10-13T03:47:12;9.52;;;8.10;;
14847;SDS011;7516;43.570;1.448;2023-10-13T03:49:51;9.38;;;8.38;;
14847;SDS011;7516;43.570;1.448;2023-10-13T03:52:39;10.00;;;7.72;;
14847;SDS011;7516;43.570;1.448;2023-10-13T03:55:07;10.55;;;8.40;;
14847;SDS011;7516;43.570;1.448;2023-10-13T03:57:44;9.68;;;8.05;;
14847;SDS011;7516;43.570;1.448;2023-10-13T04:00:15;10.13;;;8.05;;
14847;SDS011;7516;43.570;1.448;2023-10-13T04:02:50;9.82;;;8.82;;
14847;SDS011;7516;43.570;1.448;2023-10-13T04:05:29;9.63;;;6.95;;
14847;SDS011;7516;43.570;1.448;2023-10-13T04:08:04;11.35;;;8.52;;
14847;SDS011;7516;43.570;1.448;2023-10-13T04:10:48;9.75;;;8.50;;
14847;SDS011;7516;43.570;1.448;2023-10-13T04:13:35;11.27;;;9.60;;
14847;SDS011;7516;43.570;1.448;2023-10-13T04:16:20;10.10;;;8.25;;
14847;SDS011;7516;43.570;1.448;2023-10-13T04:19:03;11.18;;;8.63;;
14847;SDS011;7516;43.570;1.448;2023-10-13T04:21:35;10.35;;;8.23;;
14847;SDS011;7516;43.570;1.448;2023-10-13T04:24:07;10.88;;;9.05;;
14847;SDS011;7516;43.570;1.448;2023-10-13T04:26:49;13.20;;;8.90;;
14847;SDS011;7516;43.570;1.448;2023-10-13T04:29:36;10.80;;;8.40;;
14847;SDS011;7516;43.570;1.448;2023-10-13T04:32:22;11.65;;;8.80;;
14847;SDS011;7516;43.570;1.448;2023-10-13T04:34:55;11.00;;;9.07;;
14847;SDS011;7516;43.570;1.448;2023-10-13T04:37:33;9.80;;;8.68;;
14847;SDS011;7516;43.570;1.448;2023-10-13T04:40:14;12.15;;;8.75;;
14847;SDS011;7516;43.570;1.448;2023-10-13T04:42:44;9.77;;;8.77;;
14847;SDS011;7516;43.570;1.448;2023-10-13T04:45:20;9.63;;;8.45;;
14847;SDS011;7516;43.570;1.448;2023-10-13T04:48:13;10.80;;;8.63;;
14847;SDS011;7516;43.570;1.448;2023-10-13T04:50:58;10.25;;;8.48;;
14847;SDS011;7516;43.570;1.448;2023-10-13T04:53:40;13.55;;;8.35;;
14847;SDS011;7516;43.570;1.448;2023-10-13T04:56:21;11.68;;;8.63;;
14847;SDS011;7516;43.570;1.448;2023-10-13T04:59:18;10.02;;;8.07;;
14847;SDS011;7516;43.570;1.448;2023-10-13T05:02:02;9.23;;;8.27;;
14847;SDS011;7516;43.570;1.448;2023-10-13T05:05:08;10.35;;;8.02;;
14847;SDS011;7516;43.570;1.448;2023-10-13T05:08:08;9.50;;;8.05;;
14847;SDS011;7516;43.570;1.448;2023-10-13T05:10:53;11.57;;;8.23;;
14847;SDS011;7516;43.570;1.448;2023-10-13T05:13:38;10.55;;;8.32;;
14847;SDS011;7516;43.570;1.448;2023-10-13T05:16:34;10.27;;;8.60;;
14847;SDS011;7516;43.570;1.448;2023-10-13T05:19:20;9.70;;;8.30;;
14847;SDS011;7516;43.570;1.448;2023-10-13T05:22:05;9.32;;;8.00;;
14847;SDS011;7516;43.570;1.448;2023-10-13T05:24:50;9.75;;;8.07;;
14847;SDS011;7516;43.570;1.448;2023-10-13T05:27:35;12.80;;;8.80;;
14847;SDS011;7516;43.570;1.448;2023-10-13T05:30:19;11.60;;;8.05;;
14847;SDS011;7516;43.570;1.448;2023-10-13T05:33:05;11.52;;;8.30;;
14847;SDS011;7516;43.570;1.448;2023-10-13T05:35:51;8.43;;;7.00;;
14847;SDS011;7516;43.570;1.448;2023-10-13T05:38:36;10.70;;;7.97;;
14847;SDS011;7516;43.570;1.448;2023-10-13T05:41:21;10.00;;;7.68;;
14847;SDS011;7516;43.570;1.448;2023-10-13T05:44:21;9.05;;;7.70;;
14847;SDS011;7516;43.570;1.448;2023-10-13T05:47:12;9.40;;;7.63;;
14847;SDS011;7516;43.570;1.448;2023-10-13T05:49:57;10.18;;;7.65;;
14847;SDS011;7516;43.570;1.448;2023-10-13T05:52:39;8.95;;;7.78;;
14847;SDS011;7516;43.570;1.448;2023-10-13T05:55:24;8.25;;;7.35;;
14847;SDS011;7516;43.570;1.448;2023-10-13T05:58:10;10.32;;;7.90;;
14847;SDS011;7516;43.570;1.448;2023-10-13T06:00:55;9.45;;;8.00;;
14847;SDS011;7516;43.570;1.448;2023-10-13T06:03:40;8.20;;;7.38;;
14847;SDS011;7516;43.570;1.448;2023-10-13T06:06:25;8.70;;;7.80;;
14847;SDS011;7516;43.570;1.448;2023-10-13T06:09:12;8.38;;;7.47;;
14847;SDS011;7516;43.570;1.448;2023-10-13T06:11:57;8.25;;;7.43;;
14847;SDS011;7516;43.570;1.448;2023-10-13T06:14:44;9.32;;;7.55;;
14847;SDS011;7516;43.570;1.448;2023-10-13T06:17:30;9.13;;;7.80;;
14847;SDS011;7516;43.570;1.448;2023-10-13T06:20:14;9.07;;;7.60;;
14847;SDS011;7516;43.570;1.448;2023-10-13T06:22:59;9.07;;;7.55;;
14847;SDS011;7516;43.570;1.448;2023-10-13T06:25:51;9.02;;;7.55;;
14847;SDS011;7516;43.570;1.448;2023-10-13T06:28:36;7.93;;;7.03;;
14847;SDS011;7516;43.570;1.448;2023-10-13T06:31:08;8.32;;;7.28;;
14847;SDS011;7516;43.570;1.448;2023-10-13T06:33:46;9.23;;;7.65;;
14847;SDS011;7516;43.570;1.448;2023-10-13T06:36:14;8.13;;;7.30;;
14847;SDS011;7516;43.570;1.448;2023-10-13T06:38:43;8.88;;;7.45;;
14847;SDS011;7516;43.570;1.448;2023-10-13T06:41:19;9.43;;;8.02;;
14847;SDS011;7516;43.570;1.448;2023-10-13T06:43:55;9.32;;;7.55;;
14847;SDS011;7516;43.570;1.448;2023-10-13T06:46:26;11.68;;;8.45;;
14847;SDS011;7516;43.570;1.448;2023-10-13T06:48:54;11.10;;;7.28;;
14847;SDS011;7516;43.570;1.448;2023-10-13T06:51:24;9.85;;;7.65;;
14847;SDS011;7516;43.570;1.448;2023-10-13T06:53:56;9.73;;;7.80;;
14847;SDS011;7516;43.570;1.448;2023-10-13T06:56:25;10.95;;;8.20;;
14847;SDS011;7516;43.570;1.448;2023-10-13T06:58:56;9.98;;;8.75;;
14847;SDS011;7516;43.570;1.448;2023-10-13T07:01:27;9.23;;;8.30;;
14847;SDS011;7516;43.570;1.448;2023-10-13T07:03:55;9.32;;;8.30;;
14847;SDS011;7516;43.570;1.448;2023-10-13T07:06:26;10.00;;;8.55;;
14847;SDS011;7516;43.570;1.448;2023-10-13T07:08:53;9.27;;;7.63;;
14847;SDS011;7516;43.570;1.448;2023-10-13T07:11:25;10.80;;;8.02;;
14847;SDS011;7516;43.570;1.448;2023-10-13T07:14:00;9.73;;;7.93;;
14847;SDS011;7516;43.570;1.448;2023-10-13T07:16:35;10.02;;;8.50;;
14847;SDS011;7516;43.570;1.448;2023-10-13T07:19:11;8.98;;;7.90;;
14847;SDS011;7516;43.570;1.448;2023-10-13T07:21:42;9.73;;;8.65;;
14847;SDS011;7516;43.570;1.448;2023-10-13T07:24:11;11.52;;;8.80;;
14847;SDS011;7516;43.570;1.448;2023-10-13T07:26:42;9.95;;;8.88;;
14847;SDS011;7516;43.570;1.448;2023-10-13T07:29:11;11.30;;;9.07;;
14847;SDS011;7516;43.570;1.448;2023-10-13T07:31:39;10.80;;;9.27;;
14847;SDS011;7516;43.570;1.448;2023-10-13T07:34:09;10.30;;;9.23;;
14847;SDS011;7516;43.570;1.448;2023-10-13T07:36:50;10.15;;;9.15;;
14847;SDS011;7516;43.570;1.448;2023-10-13T07:39:20;11.00;;;9.07;;
14847;SDS011;7516;43.570;1.448;2023-10-13T07:41:50;11.85;;;8.75;;
14847;SDS011;7516;43.570;1.448;2023-10-13T07:44:21;14.90;;;9.13;;
14847;SDS011;7516;43.570;1.448;2023-10-13T07:46:54;8.95;;;8.05;;
14847;SDS011;7516;43.570;1.448;2023-10-13T07:49:28;11.30;;;9.15;;
14847;SDS011;7516;43.570;1.448;2023-10-13T07:52:00;10.38;;;8.32;;
14847;SDS011;7516;43.570;1.448;2023-10-13T07:54:41;11.95;;;8.20;;
14847;SDS011;7516;43.570;1.448;2023-10-13T07:57:14;10.73;;;9.13;;
14847;SDS011;7516;43.570;1.448;2023-10-13T07:59:42;11.85;;;9.10;;
14847;SDS011;7516;43.570;1.448;2023-10-13T08:02:16;11.98;;;9.30;;
14847;SDS011;7516;43.570;1.448;2023-10-13T08:04:57;11.65;;;9.32;;
14847;SDS011;7516;43.570;1.448;2023-10-13T08:07:26;10.05;;;9.02;;
14847;SDS011;7516;43.570;1.448;2023-10-13T08:09:54;10.57;;;8.52;;
14847;SDS011;7516;43.570;1.448;2023-10-13T08:12:25;9.85;;;8.50;;
14847;SDS011;7516;43.570;1.448;2023-10-13T08:14:53;12.63;;;8.27;;
14847;SDS011;7516;43.570;1.448;2023-10-13T08:17:49;11.88;;;8.77;;
14847;SDS011;7516;43.570;1.448;2023-10-13T08:20:17;11.90;;;9.20;;
14847;SDS011;7516;43.570;1.448;2023-10-13T08:22:47;11.23;;;8.95;;
14847;SDS011;7516;43.570;1.448;2023-10-13T08:25:15;14.63;;;8.77;;
14847;SDS011;7516;43.570;1.448;2023-10-13T08:28:10;11.32;;;9.15;;
14847;SDS011;7516;43.570;1.448;2023-10-13T08:30:54;10.85;;;8.80;;
14847;SDS011;7516;43.570;1.448;2023-10-13T08:33:23;12.68;;;8.38;;
14847;SDS011;7516;43.570;1.448;2023-10-13T08:35:52;9.70;;;8.43;;
14847;SDS011;7516;43.570;1.448;2023-10-13T08:38:52;10.52;;;8.02;;
14847;SDS011;7516;43.570;1.448;2023-10-13T08:41:21;12.45;;;8.60;;
14847;SDS011;7516;43.570;1.448;2023-10-13T08:43:55;9.88;;;8.57;;
14847;SDS011;7516;43.570;1.448;2023-10-13T08:46:46;11.80;;;8.52;;
14847;SDS011;7516;43.570;1.448;2023-10-13T08:49:33;9.43;;;8.32;;
14847;SDS011;7516;43.570;1.448;2023-10-13T08:52:09;11.00;;;8.43;;
14847;SDS011;7516;43.570;1.448;2023-10-13T08:54:53;8.73;;;7.88;;
14847;SDS011;7516;43.570;1.448;2023-10-13T08:57:45;10.75;;;8.10;;
14847;SDS011;7516;43.570;1.448;2023-10-13T09:00:15;9.20;;;8.27;;
14847;SDS011;7516;43.570;1.448;2023-10-13T09:03:15;10.40;;;8.07;;
14847;SDS011;7516;43.570;1.448;2023-10-13T09:05:56;9.27;;;8.38;;
14847;SDS011;7516;43.570;1.448;2023-10-13T09:08:26;9.50;;;7.95;;
14847;SDS011;7516;43.570;1.448;2023-10-13T09:11:01;9.13;;;8.10;;
14847;SDS011;7516;43.570;1.448;2023-10-13T09:13:37;9.88;;;8.30;;
14847;SDS011;7516;43.570;1.448;2023-10-13T09:16:10;11.30;;;8.57;;
14847;SDS011;7516;43.570;1.448;2023-10-13T09:18:42;10.80;;;8.00;;
14847;SDS011;7516;43.570;1.448;2023-10-13T09:21:14;9.95;;;8.23;;
14847;SDS011;7516;43.570;1.448;2023-10-13T09:23:59;9.00;;;8.10;;
14847;SDS011;7516;43.570;1.448;2023-10-13T09:26:44;11.38;;;8.48;;
14847;SDS011;7516;43.570;1.448;2023-10-13T09:29:15;9.77;;;8.52;;
14847;SDS011;7516;43.570;1.448;2023-10-13T09:31:44;9.20;;;8.30;;
14847;SDS011;7516;43.570;1.448;2023-10-13T09:34:20;10.05;;;8.40;;
14847;SDS011;7516;43.570;1.448;2023-10-13T09:36:55;9.20;;;8.23;;
14847;SDS011;7516;43.570;1.448;2023-10-13T09:39:24;11.30;;;7.85;;
14847;SDS011;7516;43.570;1.448;2023-10-13T09:42:09;11.00;;;8.25;;
14847;SDS011;7516;43.570;1.448;2023-10-13T09:44:37;11.90;;;8.15;;
14847;SDS011;7516;43.570;1.448;2023-10-13T09:47:07;12.25;;;8.27;;
14847;SDS011;7516;43.570;1.448;2023-10-13T09:49:43;8.90;;;7.75;;
14847;SDS011;7516;43.570;1.448;2023-10-13T09:52:16;9.38;;;8.45;;
14847;SDS011;7516;43.570;1.448;2023-10-13T09:54:56;10.57;;;8.18;;
14847;SDS011;7516;43.570;1.448;2023-10-13T09:57:34;9.77;;;8.48;;
14847;SDS011;7516;43.570;1.448;2023-10-13T10:00:10;10.70;;;8.20;;
14847;SDS011;7516;43.570;1.448;2023-10-13T10:02:57;9.43;;;7.78;;
14847;SDS011;7516;43.570;1.448;2023-10-13T10:05:39;12.05;;;7.60;;
14847;SDS011;7516;43.570;1.448;2023-10-13T10:08:08;8.77;;;7.88;;
14847;SDS011;7516;43.570;1.448;2023-10-13T10:10:43;10.18;;;7.82;;
14847;SDS011;7516;43.570;1.448;2023-10-13T10:13:26;12.68;;;7.80;;
14847;SDS011;7516;43.570;1.448;2023-10-13T10:16:06;9.93;;;7.28;;
14847;SDS011;7516;43.570;1.448;2023-10-13T10:18:40;8.48;;;7.68;;
14847;SDS011;7516;43.570;1.448;2023-10-13T10:21:08;9.25;;;8.15;;
14847;SDS011;7516;43.570;1.448;2023-10-13T10:23:38;9.73;;;8.20;;
14847;SDS011;7516;43.570;1.448;2023-10-13T10:26:10;10.88;;;7.78;;
14847;SDS011;7516;43.570;1.448;2023-10-13T10:28:39;9.93;;;7.60;;
14847;SDS011;7516;43.570;1.448;2023-10-13T10:31:08;9.35;;;7.90;;
14847;SDS011;7516;43.570;1.448;2023-10-13T10:33:38;7.82;;;6.75;;
14847;SDS011;7516;43.570;1.448;2023-10-13T10:36:06;9.73;;;7.72;;
14847;SDS011;7516;43.570;1.448;2023-10-13T10:38:52;8.98;;;7.53;;
14847;SDS011;7516;43.570;1.448;2023-10-13T10:41:27;11.63;;;7.38;;
14847;SDS011;7516;43.570;1.448;2023-10-13T10:44:10;11.85;;;7.10;;
14847;SDS011;7516;43.570;1.448;2023-10-13T10:46:42;8.25;;;7.10;;
14847;SDS011;7516;43.570;1.448;2023-10-13T10:49:22;10.80;;;7.38;;
14847;SDS011;7516;43.570;1.448;2023-10-13T10:51:57;7.93;;;6.85;;
14847;SDS011;7516;43.570;1.448;2023-10-13T10:54:30;12.75;;;7.03;;
14847;SDS011;7516;43.570;1.448;2023-10-13T10:56:58;10.32;;;6.38;;
14847;SDS011;7516;43.570;1.448;2023-10-13T10:59:37;7.80;;;6.60;;
14847;SDS011;7516;43.570;1.448;2023-10-13T11:02:05;9.05;;;6.82;;
14847;SDS011;7516;43.570;1.448;2023-10-13T11:04:34;7.68;;;6.25;;
14847;SDS011;7516;43.570;1.448;2023-10-13T11:07:06;7.53;;;6.20;;
14847;SDS011;7516;43.570;1.448;2023-10-13T11:09:36;7.53;;;6.38;;
14847;SDS011;7516;43.570;1.448;2023-10-13T11:12:11;11.48;;;6.63;;
14847;SDS011;7516;43.570;1.448;2023-10-13T11:14:49;7.50;;;6.07;;
14847;SDS011;7516;43.570;1.448;2023-10-13T11:17:27;7.35;;;6.47;;
14847;SDS011;7516;43.570;1.448;2023-10-13T11:20:16;9.88;;;6.30;;
14847;SDS011;7516;43.570;1.448;2023-10-13T11:22:51;10.40;;;6.50;;
14847;SDS011;7516;43.570;1.448;2023-10-13T11:25:24;10.23;;;6.53;;
14847;SDS011;7516;43.570;1.448;2023-10-13T11:27:56;9.95;;;6.65;;
14847;SDS011;7516;43.570;1.448;2023-10-13T11:30:25;7.53;;;6.25;;
14847;SDS011;7516;43.570;1.448;2023-10-13T11:33:06;7.50;;;5.78;;
14847;SDS011;7516;43.570;1.448;2023-10-13T11:35:35;10.10;;;6.13;;
14847;SDS011;7516;43.570;1.448;2023-10-13T11:38:21;6.50;;;5.85;;
14847;SDS011;7516;43.570;1.448;2023-10-13T11:40:55;10.10;;;5.78;;
14847;SDS011;7516;43.570;1.448;2023-10-13T11:43:40;7.72;;;5.75;;
14847;SDS011;7516;43.570;1.448;2023-10-13T11:46:29;9.35;;;5.78;;
14847;SDS011;7516;43.570;1.448;2023-10-13T11:49:20;9.18;;;5.75;;
14847;SDS011;7516;43.570;1.448;2023-10-13T11:51:59;10.40;;;5.32;;
14847;SDS011;7516;43.570;1.448;2023-10-13T11:54:41;6.55;;;5.63;;
14847;SDS011;7516;43.570;1.448;2023-10-13T11:57:10;9.48;;;5.22;;
14847;SDS011;7516;43.570;1.448;2023-10-13T11:59:37;6.50;;;5.47;;
14847;SDS011;7516;43.570;1.448;2023-10-13T12:02:18;6.32;;;5.30;;
14847;SDS011;7516;43.570;1.448;2023-10-13T12:05:04;6.80;;;5.47;;
14847;SDS011;7516;43.570;1.448;2023-10-13T12:07:52;8.43;;;5.45;;
14847;SDS011;7516;43.570;1.448;2023-10-13T12:10:28;9.48;;;5.13;;
14847;SDS011;7516;43.570;1.448;2023-10-13T12:13:16;7.95;;;5.53;;
14847;SDS011;7516;43.570;1.448;2023-10-13T12:15:44;7.13;;;4.85;;
14847;SDS011;7516;43.570;1.448;2023-10-13T12:18:16;7.30;;;5.72;;
14847;SDS011;7516;43.570;1.448;2023-10-13T12:20:45;6.60;;;5.82;;
14847;SDS011;7516;43.570;1.448;2023-10-13T12:23:13;6.72;;;5.22;;
14847;SDS011;7516;43.570;1.448;2023-10-13T12:25:45;7.78;;;4.93;;
14847;SDS011;7516;43.570;1.448;2023-10-13T12:28:27;6.75;;;5.43;;
14847;SDS011;7516;43.570;1.448;2023-10-13T12:30:56;7.55;;;5.18;;
14847;SDS011;7516;43.570;1.448;2023-10-13T12:33:32;8.38;;;5.57;;
14847;SDS011;7516;43.570;1.448;2023-10-13T12:36:05;5.88;;;4.88;;
14847;SDS011;7516;43.570;1.448;2023-10-13T12:38:34;7.55;;;4.85;;
14847;SDS011;7516;43.570;1.448;2023-10-13T12:41:37;7.13;;;4.95;;
14847;SDS011;7516;43.570;1.448;2023-10-13T12:44:24;5.85;;;5.25;;
14847;SDS011;7516;43.570;1.448;2023-10-13T12:47:08;7.53;;;5.13;;
14847;SDS011;7516;43.570;1.448;2023-10-13T12:49:54;7.03;;;4.63;;
14847;SDS011;7516;43.570;1.448;2023-10-13T12:52:32;7.15;;;4.88;;
14847;SDS011;7516;43.570;1.448;2023-10-13T12:54:59;9.27;;;5.10;;
14847;SDS011;7516;43.570;1.448;2023-10-13T12:57:35;8.02;;;5.15;;
14847;SDS011;7516;43.570;1.448;2023-10-13T13:00:15;7.13;;;4.70;;
14847;SDS011;7516;43.570;1.448;2023-10-13T13:02:46;7.47;;;4.72;;
14847;SDS011;7516;43.570;1.448;2023-10-13T13:05:18;8.07;;;4.47;;
14847;SDS011;7516;43.570;1.448;2023-10-13T13:07:48;8.52;;;4.10;;
14847;SDS011;7516;43.570;1.448;2023-10-13T13:10:19;6.32;;;4.50;;
14847;SDS011;7516;43.570;1.448;2023-10-13T13:13:00;5.72;;;3.83;;
14847;SDS011;7516;43.570;1.448;2023-10-13T13:15:30;8.07;;;4.50;;
14847;SDS011;7516;43.570;1.448;2023-10-13T13:17:58;6.88;;;4.75;;
14847;SDS011;7516;43.570;1.448;2023-10-13T13:20:35;9.65;;;4.75;;
14847;SDS011;7516;43.570;1.448;2023-10-13T13:23:04;7.10;;;4.68;;
14847;SDS011;7516;43.570;1.448;2023-10-13T13:25:32;8.68;;;4.75;;
14847;SDS011;7516;43.570;1.448;2023-10-13T13:28:07;8.48;;;4.75;;
14847;SDS011;7516;43.570;1.448;2023-10-13T13:30:37;7.00;;;4.78;;
14847;SDS011;7516;43.570;1.448;2023-10-13T13:33:06;9.18;;;4.45;;
14847;SDS011;7516;43.570;1.448;2023-10-13T13:35:37;5.43;;;4.43;;
14847;SDS011;7516;43.570;1.448;2023-10-13T13:38:07;6.65;;;5.35;;
14847;SDS011;7516;43.570;1.448;2023-10-13T13:40:47;6.07;;;4.60;;
14847;SDS011;7516;43.570;1.448;2023-10-13T13:43:19;7.18;;;4.38;;
14847;SDS011;7516;43.570;1.448;2023-10-13T13:46:04;7.90;;;4.15;;
14847;SDS011;7516;43.570;1.448;2023-10-13T13:48:34;8.07;;;4.53;;
14847;SDS011;7516;43.570;1.448;2023-10-13T13:51:03;6.28;;;4.53;;
14847;SDS011;7516;43.570;1.448;2023-10-13T13:53:31;6.72;;;4.05;;
14847;SDS011;7516;43.570;1.448;2023-10-13T13:56:00;8.10;;;4.30;;
14847;SDS011;7516;43.570;1.448;2023-10-13T13:58:28;6.50;;;4.50;;
14847;SDS011;7516;43.570;1.448;2023-10-13T14:00:59;9.38;;;4.65;;
14847;SDS011;7516;43.570;1.448;2023-10-13T14:03:38;6.93;;;4.47;;
14847;SDS011;7516;43.570;1.448;2023-10-13T14:06:10;8.35;;;4.80;;
14847;SDS011;7516;43.570;1.448;2023-10-13T14:08:43;5.80;;;4.50;;
14847;SDS011;7516;43.570;1.448;2023-10-13T14:11:13;10.52;;;5.13;;
14847;SDS011;7516;43.570;1.448;2023-10-13T14:14:08;9.07;;;4.60;;
14847;SDS011;7516;43.570;1.448;2023-10-13T14:16:38;9.55;;;4.53;;
14847;SDS011;7516;43.570;1.448;2023-10-13T14:19:11;7.50;;;4.93;;
14847;SDS011;7516;43.570;1.448;2023-10-13T14:21:51;8.70;;;4.53;;
14847;SDS011;7516;43.570;1.448;2023-10-13T14:24:19;9.13;;;4.70;;
14847;SDS011;7516;43.570;1.448;2023-10-13T14:26:52;7.50;;;4.88;;
14847;SDS011;7516;43.570;1.448;2023-10-13T14:29:20;9.32;;;5.22;;
14847;SDS011;7516;43.570;1.448;2023-10-13T14:31:51;11.57;;;5.28;;
14847;SDS011;7516;43.570;1.448;2023-10-13T14:34:20;7.72;;;4.97;;
14847;SDS011;7516;43.570;1.448;2023-10-13T14:36:48;8.35;;;5.10;;
14847;SDS011;7516;43.570;1.448;2023-10-13T14:39:15;9.05;;;5.45;;
14847;SDS011;7516;43.570;1.448;2023-10-13T14:41:46;5.68;;;4.38;;
14847;SDS011;7516;43.570;1.448;2023-10-13T14:44:14;9.40;;;5.40;;
14847;SDS011;7516;43.570;1.448;2023-10-13T14:46:41;7.72;;;4.80;;
14847;SDS011;7516;43.570;1.448;2023-10-13T14:49:09;7.80;;;4.78;;
14847;SDS011;7516;43.570;1.448;2023-10-13T14:51:40;7.30;;;5.10;;
14847;SDS011;7516;43.570;1.448;2023-10-13T14:54:08;9.93;;;5.07;;
14847;SDS011;7516;43.570;1.448;2023-10-13T14:56:35;9.13;;;5.20;;
14847;SDS011;7516;43.570;1.448;2023-10-13T14:59:05;8.32;;;4.85;;
14847;SDS011;7516;43.570;1.448;2023-10-13T15:01:32;10.35;;;5.53;;
14847;SDS011;7516;43.570;1.448;2023-10-13T15:04:00;9.15;;;5.00;;
14847;SDS011;7516;43.570;1.448;2023-10-13T15:06:30;6.78;;;4.55;;
14847;SDS011;7516;43.570;1.448;2023-10-13T15:08:59;10.50;;;4.55;;
14847;SDS011;7516;43.570;1.448;2023-10-13T15:11:29;9.75;;;4.70;;
14847;SDS011;7516;43.570;1.448;2023-10-13T15:14:02;5.55;;;4.70;;
14847;SDS011;7516;43.570;1.448;2023-10-13T15:16:31;5.25;;;4.63;;
14847;SDS011;7516;43.570;1.448;2023-10-13T15:19:00;8.07;;;4.63;;
14847;SDS011;7516;43.570;1.448;2023-10-13T15:21:29;7.38;;;4.80;;
14847;SDS011;7516;43.570;1.448;2023-10-13T15:24:01;6.95;;;4.55;;
14847;SDS011;7516;43.570;1.448;2023-10-13T15:26:38;7.63;;;4.85;;
14847;SDS011;7516;43.570;1.448;2023-10-13T15:29:10;6.50;;;4.72;;
14847;SDS011;7516;43.570;1.448;2023-10-13T15:31:38;5.80;;;4.45;;
14847;SDS011;7516;43.570;1.448;2023-10-13T15:34:08;8.32;;;4.80;;
14847;SDS011;7516;43.570;1.448;2023-10-13T15:36:38;9.30;;;4.75;;
14847;SDS011;7516;43.570;1.448;2023-10-13T15:39:09;6.55;;;5.00;;
14847;SDS011;7516;43.570;1.448;2023-10-13T15:41:40;8.00;;;4.85;;